sensor_id;sensor_type;location;lat;lon;timestamp;P1;durP1;ratioP1;P2;durP2;ratioP2
82032;SDS011;71595;52.180;4.512;2023-12-07T00:00:31;6.93;;;3.42;;
82032;SDS011;71595;52.180;4.512;2023-12-07T00:02:57;6.65;;;2.95;;
82032;SDS011;71595;52.180;4.512;2023-12-07T00:05:22;4.70;;;2.90;;
82032;SDS011;71595;52.180;4.512;2023-12-07T00:07:47;5.03;;;3.08;;
82032;SDS011;71595;52.180;4.512;2023-12-07T00:10:13;7.38;;;3.30;;
82032;SDS011;71595;52.180;4.512;2023-12-07T00:12:39;6.05;;;3.28;;
82032;SDS011;71595;52.180;4.512;2023-12-07T00:15:05;6.15;;;3.20;;
82032;SDS011;71595;52.180;4.512;2023-12-07T00:17:31;6.38;;;3.25;;
82032;SDS011;71595;52.180;4.512;2023-12-07T00:19:56;6.43;;;3.42;;
82032;SDS011;71595;52.180;4.512;2023-12-07T00:22:28;7.43;;;3.38;;
82032;SDS011;71595;52.180;4.512;2023-12-07T00:24:53;5.82;;;3.35;;
82032;SDS011;71595;52.180;4.512;2023-12-07T00:27:19;5.25;;;3.40;;
82032;SDS011;71595;52.180;4.512;2023-12-07T00:29:44;5.78;;;3.47;;
82032;SDS011;71595;52.180;4.512;2023-12-07T00:32:10;8.73;;;3.70;;
82032;SDS011;71595;52.180;4.512;2023-12-07T00:34:35;5.75;;;3.35;;
82032;SDS011;71595;52.180;4.512;2023-12-07T00:37:00;5.75;;;4.53;;
82032;SDS011;71595;52.180;4.512;2023-12-07T00:39:26;6.38;;;3.58;;
82032;SDS011;71595;52.180;4.512;2023-12-07T00:41:51;5.90;;;3.67;;
82032;SDS011;71595;52.180;4.512;2023-12-07T00:46:43;6.88;;;3.83;;
82032;SDS011;71595;52.180;4.512;2023-12-07T00:49:08;6.05;;;3.40;;
82032;SDS011;71595;52.180;4.512;2023-12-07T00:51:33;7.05;;;3.65;;
82032;SDS011;71595;52.180;4.512;2023-12-07T00:53:59;5.47;;;3.58;;
82032;SDS011;71595;52.180;4.512;2023-12-07T00:56:24;5.90;;;3.67;;
82032;SDS011;71595;52.180;4.512;2023-12-07T00:58:50;7.47;;;3.90;;
82032;SDS011;71595;52.180;4.512;2023-12-07T01:01:15;7.15;;;3.53;;
82032;SDS011;71595;52.180;4.512;2023-12-07T01:03:41;5.88;;;3.83;;
82032;SDS011;71595;52.180;4.512;2023-12-07T01:06:07;9.68;;;4.28;;
82032;SDS011;71595;52.180;4.512;2023-12-07T01:08:32;8.43;;;3.47;;
82032;SDS011;71595;52.180;4.512;2023-12-07T01:10:58;7.20;;;4.07;;
82032;SDS011;71595;52.180;4.512;2023-12-07T01:13:23;9.60;;;4.65;;
82032;SDS011;71595;52.180;4.512;2023-12-07T01:15:49;6.57;;;4.20;;
82032;SDS011;71595;52.180;4.512;2023-12-07T01:18:14;6.25;;;3.35;;
82032;SDS011;71595;52.180;4.512;2023-12-07T01:20:40;6.78;;;4.07;;
82032;SDS011;71595;52.180;4.512;2023-12-07T01:23:06;8.38;;;3.75;;
82032;SDS011;71595;52.180;4.512;2023-12-07T01:25:33;7.25;;;3.70;;
82032;SDS011;71595;52.180;4.512;2023-12-07T01:27:59;7.85;;;4.10;;
82032;SDS011;71595;52.180;4.512;2023-12-07T01:30:25;8.55;;;4.20;;
82032;SDS011;71595;52.180;4.512;2023-12-07T01:32:50;6.28;;;3.38;;
82032;SDS011;71595;52.180;4.512;2023-12-07T01:35:15;7.75;;;3.75;;
82032;SDS011;71595;52.180;4.512;2023-12-07T01:37:41;6.40;;;3.67;;
82032;SDS011;71595;52.180;4.512;2023-12-07T01:40:07;7.50;;;3.78;;
82032;SDS011;71595;52.180;4.512;2023-12-07T01:42:35;7.97;;;4.18;;
82032;SDS011;71595;52.180;4.512;2023-12-07T01:45:05;7.20;;;4.28;;
82032;SDS011;71595;52.180;4.512;2023-12-07T01:47:31;7.45;;;4.43;;
82032;SDS011;71595;52.180;4.512;2023-12-07T01:49:57;6.60;;;3.65;;
82032;SDS011;71595;52.180;4.512;2023-12-07T01:54:50;6.63;;;3.50;;
82032;SDS011;71595;52.180;4.512;2023-12-07T01:57:15;7.68;;;3.60;;
82032;SDS011;71595;52.180;4.512;2023-12-07T01:59:40;7.40;;;3.85;;
82032;SDS011;71595;52.180;4.512;2023-12-07T02:02:06;7.93;;;4.25;;
82032;SDS011;71595;52.180;4.512;2023-12-07T02:04:32;6.35;;;4.00;;
82032;SDS011;71595;52.180;4.512;2023-12-07T02:06:57;8.00;;;4.05;;
82032;SDS011;71595;52.180;4.512;2023-12-07T02:09:25;6.70;;;3.83;;
82032;SDS011;71595;52.180;4.512;2023-12-07T02:11:50;8.38;;;4.10;;
82032;SDS011;71595;52.180;4.512;2023-12-07T02:14:16;7.90;;;4.22;;
82032;SDS011;71595;52.180;4.512;2023-12-07T02:16:45;6.97;;;3.97;;
82032;SDS011;71595;52.180;4.512;2023-12-07T02:22:01;7.07;;;4.03;;
82032;SDS011;71595;52.180;4.512;2023-12-07T02:24:29;6.47;;;4.13;;
82032;SDS011;71595;52.180;4.512;2023-12-07T02:26:58;8.60;;;4.43;;
82032;SDS011;71595;52.180;4.512;2023-12-07T02:29:24;8.02;;;4.72;;
82032;SDS011;71595;52.180;4.512;2023-12-07T02:31:49;10.23;;;4.88;;
82032;SDS011;71595;52.180;4.512;2023-12-07T02:34:14;7.30;;;4.55;;
82032;SDS011;71595;52.180;4.512;2023-12-07T02:36:40;7.13;;;4.90;;
82032;SDS011;71595;52.180;4.512;2023-12-07T02:39:08;10.13;;;4.68;;
82032;SDS011;71595;52.180;4.512;2023-12-07T02:41:34;9.18;;;4.97;;
82032;SDS011;71595;52.180;4.512;2023-12-07T02:44:01;8.07;;;4.45;;
82032;SDS011;71595;52.180;4.512;2023-12-07T02:46:27;11.43;;;5.15;;
82032;SDS011;71595;52.180;4.512;2023-12-07T02:48:52;8.57;;;4.50;;
82032;SDS011;71595;52.180;4.512;2023-12-07T02:51:18;8.32;;;4.05;;
82032;SDS011;71595;52.180;4.512;2023-12-07T02:53:44;11.27;;;4.97;;
82032;SDS011;71595;52.180;4.512;2023-12-07T02:56:09;7.60;;;4.22;;
82032;SDS011;71595;52.180;4.512;2023-12-07T02:58:35;9.15;;;4.70;;
82032;SDS011;71595;52.180;4.512;2023-12-07T03:01:00;9.05;;;4.38;;
82032;SDS011;71595;52.180;4.512;2023-12-07T03:03:25;7.03;;;4.32;;
82032;SDS011;71595;52.180;4.512;2023-12-07T03:05:51;8.98;;;4.35;;
82032;SDS011;71595;52.180;4.512;2023-12-07T03:08:16;9.15;;;4.47;;
82032;SDS011;71595;52.180;4.512;2023-12-07T03:10:42;7.63;;;4.40;;
82032;SDS011;71595;52.180;4.512;2023-12-07T03:13:07;8.02;;;4.90;;
82032;SDS011;71595;52.180;4.512;2023-12-07T03:15:32;7.82;;;4.32;;
82032;SDS011;71595;52.180;4.512;2023-12-07T03:17:58;6.55;;;4.13;;
82032;SDS011;71595;52.180;4.512;2023-12-07T03:20:23;11.38;;;5.15;;
82032;SDS011;71595;52.180;4.512;2023-12-07T03:22:48;7.80;;;4.97;;
82032;SDS011;71595;52.180;4.512;2023-12-07T03:25:14;8.50;;;5.00;;
82032;SDS011;71595;52.180;4.512;2023-12-07T03:27:39;9.65;;;5.13;;
82032;SDS011;71595;52.180;4.512;2023-12-07T03:30:05;8.07;;;4.70;;
82032;SDS011;71595;52.180;4.512;2023-12-07T03:32:31;9.05;;;5.53;;
82032;SDS011;71595;52.180;4.512;2023-12-07T03:34:56;10.20;;;5.90;;
82032;SDS011;71595;52.180;4.512;2023-12-07T03:37:21;11.25;;;4.95;;
82032;SDS011;71595;52.180;4.512;2023-12-07T03:39:47;12.45;;;6.10;;
82032;SDS011;71595;52.180;4.512;2023-12-07T03:42:12;11.45;;;5.45;;
82032;SDS011;71595;52.180;4.512;2023-12-07T03:44:37;11.18;;;5.90;;
82032;SDS011;71595;52.180;4.512;2023-12-07T03:47:03;10.18;;;5.60;;
82032;SDS011;71595;52.180;4.512;2023-12-07T03:49:28;10.98;;;5.63;;
82032;SDS011;71595;52.180;4.512;2023-12-07T03:51:54;8.35;;;5.50;;
82032;SDS011;71595;52.180;4.512;2023-12-07T03:54:19;8.15;;;5.20;;
82032;SDS011;71595;52.180;4.512;2023-12-07T03:56:44;9.43;;;5.40;;
82032;SDS011;71595;52.180;4.512;2023-12-07T03:59:10;10.90;;;5.50;;
82032;SDS011;71595;52.180;4.512;2023-12-07T04:01:35;8.95;;;5.13;;
82032;SDS011;71595;52.180;4.512;2023-12-07T04:04:01;8.50;;;5.25;;
82032;SDS011;71595;52.180;4.512;2023-12-07T04:06:26;12.32;;;6.07;;
82032;SDS011;71595;52.180;4.512;2023-12-07T04:08:52;9.65;;;5.55;;
82032;SDS011;71595;52.180;4.512;2023-12-07T04:11:18;9.90;;;4.82;;
82032;SDS011;71595;52.180;4.512;2023-12-07T04:13:43;9.77;;;5.38;;
82032;SDS011;71595;52.180;4.512;2023-12-07T04:16:10;9.85;;;5.00;;
82032;SDS011;71595;52.180;4.512;2023-12-07T04:18:36;10.18;;;5.82;;
82032;SDS011;71595;52.180;4.512;2023-12-07T04:21:01;12.35;;;5.68;;
82032;SDS011;71595;52.180;4.512;2023-12-07T04:23:28;9.57;;;5.60;;
82032;SDS011;71595;52.180;4.512;2023-12-07T04:25:53;11.52;;;6.20;;
82032;SDS011;71595;52.180;4.512;2023-12-07T04:28:19;12.00;;;5.65;;
82032;SDS011;71595;52.180;4.512;2023-12-07T04:30:44;8.68;;;5.38;;
82032;SDS011;71595;52.180;4.512;2023-12-07T04:33:09;10.23;;;5.80;;
82032;SDS011;71595;52.180;4.512;2023-12-07T04:35:35;8.23;;;5.30;;
82032;SDS011;71595;52.180;4.512;2023-12-07T04:38:00;10.48;;;5.88;;
82032;SDS011;71595;52.180;4.512;2023-12-07T04:40:26;8.48;;;5.05;;
82032;SDS011;71595;52.180;4.512;2023-12-07T04:42:58;10.35;;;5.20;;
82032;SDS011;71595;52.180;4.512;2023-12-07T04:47:49;11.93;;;5.80;;
82032;SDS011;71595;52.180;4.512;2023-12-07T04:50:15;9.05;;;5.43;;
82032;SDS011;71595;52.180;4.512;2023-12-07T04:52:40;11.00;;;5.32;;
82032;SDS011;71595;52.180;4.512;2023-12-07T04:55:06;8.38;;;5.50;;
82032;SDS011;71595;52.180;4.512;2023-12-07T04:57:35;11.43;;;6.18;;
82032;SDS011;71595;52.180;4.512;2023-12-07T05:00:00;11.63;;;6.00;;
82032;SDS011;71595;52.180;4.512;2023-12-07T05:02:31;10.93;;;5.70;;
82032;SDS011;71595;52.180;4.512;2023-12-07T05:04:56;10.48;;;5.57;;
82032;SDS011;71595;52.180;4.512;2023-12-07T05:07:22;11.57;;;5.65;;
82032;SDS011;71595;52.180;4.512;2023-12-07T05:09:47;8.82;;;5.25;;
82032;SDS011;71595;52.180;4.512;2023-12-07T05:12:13;10.15;;;6.03;;
82032;SDS011;71595;52.180;4.512;2023-12-07T05:14:38;10.30;;;5.82;;
82032;SDS011;71595;52.180;4.512;2023-12-07T05:17:03;10.98;;;6.30;;
82032;SDS011;71595;52.180;4.512;2023-12-07T05:19:30;9.57;;;6.65;;
82032;SDS011;71595;52.180;4.512;2023-12-07T05:21:55;11.57;;;6.78;;
82032;SDS011;71595;52.180;4.512;2023-12-07T05:24:20;14.48;;;6.57;;
82032;SDS011;71595;52.180;4.512;2023-12-07T05:26:46;11.55;;;6.60;;
82032;SDS011;71595;52.180;4.512;2023-12-07T05:29:11;13.95;;;5.95;;
82032;SDS011;71595;52.180;4.512;2023-12-07T05:31:38;12.20;;;6.57;;
82032;SDS011;71595;52.180;4.512;2023-12-07T05:34:03;12.60;;;7.28;;
82032;SDS011;71595;52.180;4.512;2023-12-07T05:36:29;12.95;;;7.15;;
82032;SDS011;71595;52.180;4.512;2023-12-07T05:38:55;11.77;;;6.70;;
82032;SDS011;71595;52.180;4.512;2023-12-07T05:41:20;14.85;;;7.20;;
82032;SDS011;71595;52.180;4.512;2023-12-07T05:43:45;15.32;;;8.43;;
82032;SDS011;71595;52.180;4.512;2023-12-07T05:46:11;14.73;;;8.13;;
82032;SDS011;71595;52.180;4.512;2023-12-07T05:48:36;17.73;;;8.55;;
82032;SDS011;71595;52.180;4.512;2023-12-07T05:51:02;18.85;;;8.93;;
82032;SDS011;71595;52.180;4.512;2023-12-07T05:53:28;18.73;;;9.07;;
82032;SDS011;71595;52.180;4.512;2023-12-07T05:55:56;19.88;;;8.90;;
82032;SDS011;71595;52.180;4.512;2023-12-07T05:58:22;18.80;;;9.23;;
82032;SDS011;71595;52.180;4.512;2023-12-07T06:00:47;19.23;;;9.40;;
82032;SDS011;71595;52.180;4.512;2023-12-07T06:03:13;17.35;;;8.98;;
82032;SDS011;71595;52.180;4.512;2023-12-07T06:05:38;23.15;;;10.10;;
82032;SDS011;71595;52.180;4.512;2023-12-07T06:08:05;15.73;;;8.52;;
82032;SDS011;71595;52.180;4.512;2023-12-07T06:10:30;14.65;;;8.60;;
82032;SDS011;71595;52.180;4.512;2023-12-07T06:12:56;22.50;;;10.43;;
82032;SDS011;71595;52.180;4.512;2023-12-07T06:15:23;23.08;;;10.30;;
82032;SDS011;71595;52.180;4.512;2023-12-07T06:17:49;20.73;;;9.27;;
82032;SDS011;71595;52.180;4.512;2023-12-07T06:20:14;17.08;;;8.93;;
82032;SDS011;71595;52.180;4.512;2023-12-07T06:22:40;19.25;;;8.55;;
82032;SDS011;71595;52.180;4.512;2023-12-07T06:25:05;21.48;;;10.32;;
82032;SDS011;71595;52.180;4.512;2023-12-07T06:27:31;17.10;;;9.25;;
82032;SDS011;71595;52.180;4.512;2023-12-07T06:29:58;18.27;;;8.57;;
82032;SDS011;71595;52.180;4.512;2023-12-07T06:32:24;20.85;;;10.10;;
82032;SDS011;71595;52.180;4.512;2023-12-07T06:34:50;15.15;;;8.35;;
82032;SDS011;71595;52.180;4.512;2023-12-07T06:37:15;16.70;;;8.02;;
82032;SDS011;71595;52.180;4.512;2023-12-07T06:39:42;19.60;;;8.75;;
82032;SDS011;71595;52.180;4.512;2023-12-07T06:42:07;15.82;;;8.35;;
82032;SDS011;71595;52.180;4.512;2023-12-07T06:44:33;15.73;;;8.25;;
82032;SDS011;71595;52.180;4.512;2023-12-07T06:46:58;19.95;;;8.50;;
82032;SDS011;71595;52.180;4.512;2023-12-07T06:49:23;19.00;;;9.55;;
82032;SDS011;71595;52.180;4.512;2023-12-07T06:51:49;20.17;;;8.43;;
82032;SDS011;71595;52.180;4.512;2023-12-07T06:54:14;20.30;;;9.40;;
82032;SDS011;71595;52.180;4.512;2023-12-07T06:56:40;15.90;;;8.40;;
82032;SDS011;71595;52.180;4.512;2023-12-07T06:59:05;18.80;;;8.68;;
82032;SDS011;71595;52.180;4.512;2023-12-07T07:01:30;19.13;;;8.70;;
82032;SDS011;71595;52.180;4.512;2023-12-07T07:03:56;15.50;;;8.23;;
82032;SDS011;71595;52.180;4.512;2023-12-07T07:06:21;17.33;;;7.93;;
82032;SDS011;71595;52.180;4.512;2023-12-07T07:08:47;18.25;;;8.25;;
82032;SDS011;71595;52.180;4.512;2023-12-07T07:11:14;16.38;;;7.15;;
82032;SDS011;71595;52.180;4.512;2023-12-07T07:13:40;17.30;;;7.78;;
82032;SDS011;71595;52.180;4.512;2023-12-07T07:16:06;17.92;;;7.63;;
82032;SDS011;71595;52.180;4.512;2023-12-07T07:18:32;13.60;;;6.50;;
82032;SDS011;71595;52.180;4.512;2023-12-07T07:20:58;14.27;;;7.65;;
82032;SDS011;71595;52.180;4.512;2023-12-07T07:23:23;13.90;;;7.13;;
82032;SDS011;71595;52.180;4.512;2023-12-07T07:25:48;15.20;;;6.53;;
82032;SDS011;71595;52.180;4.512;2023-12-07T07:28:14;16.75;;;7.57;;
82032;SDS011;71595;52.180;4.512;2023-12-07T07:30:39;15.18;;;6.80;;
82032;SDS011;71595;52.180;4.512;2023-12-07T07:33:05;16.52;;;7.40;;
82032;SDS011;71595;52.180;4.512;2023-12-07T07:35:30;15.50;;;7.00;;
82032;SDS011;71595;52.180;4.512;2023-12-07T07:37:56;17.75;;;7.03;;
82032;SDS011;71595;52.180;4.512;2023-12-07T07:40:21;15.80;;;6.70;;
82032;SDS011;71595;52.180;4.512;2023-12-07T07:42:46;13.02;;;6.90;;
82032;SDS011;71595;52.180;4.512;2023-12-07T07:45:12;15.45;;;6.47;;
82032;SDS011;71595;52.180;4.512;2023-12-07T07:47:37;13.60;;;6.55;;
82032;SDS011;71595;52.180;4.512;2023-12-07T07:50:03;16.23;;;6.85;;
82032;SDS011;71595;52.180;4.512;2023-12-07T07:52:33;14.77;;;6.65;;
82032;SDS011;71595;52.180;4.512;2023-12-07T07:55:03;12.80;;;5.70;;
82032;SDS011;71595;52.180;4.512;2023-12-07T07:57:29;10.95;;;5.97;;
82032;SDS011;71595;52.180;4.512;2023-12-07T07:59:56;14.80;;;5.70;;
82032;SDS011;71595;52.180;4.512;2023-12-07T08:02:22;14.52;;;5.32;;
82032;SDS011;71595;52.180;4.512;2023-12-07T08:04:47;13.70;;;5.13;;
82032;SDS011;71595;52.180;4.512;2023-12-07T08:07:13;13.07;;;5.43;;
82032;SDS011;71595;52.180;4.512;2023-12-07T08:09:38;14.25;;;5.47;;
82032;SDS011;71595;52.180;4.512;2023-12-07T08:12:04;15.82;;;5.30;;
82032;SDS011;71595;52.180;4.512;2023-12-07T08:14:31;12.95;;;5.57;;
82032;SDS011;71595;52.180;4.512;2023-12-07T08:16:56;11.68;;;5.55;;
82032;SDS011;71595;52.180;4.512;2023-12-07T08:19:21;10.68;;;5.20;;
82032;SDS011;71595;52.180;4.512;2023-12-07T08:21:47;12.18;;;5.55;;
82032;SDS011;71595;52.180;4.512;2023-12-07T08:24:12;14.60;;;6.22;;
82032;SDS011;71595;52.180;4.512;2023-12-07T08:26:38;13.82;;;6.15;;
82032;SDS011;71595;52.180;4.512;2023-12-07T08:29:04;12.43;;;5.63;;
82032;SDS011;71595;52.180;4.512;2023-12-07T08:31:29;15.40;;;6.50;;
82032;SDS011;71595;52.180;4.512;2023-12-07T08:33:55;14.05;;;5.53;;
82032;SDS011;71595;52.180;4.512;2023-12-07T08:36:20;14.48;;;6.13;;
82032;SDS011;71595;52.180;4.512;2023-12-07T08:38:45;13.93;;;6.20;;
82032;SDS011;71595;52.180;4.512;2023-12-07T08:41:11;14.30;;;5.80;;
82032;SDS011;71595;52.180;4.512;2023-12-07T08:43:36;14.70;;;5.82;;
82032;SDS011;71595;52.180;4.512;2023-12-07T08:46:01;12.82;;;4.75;;
82032;SDS011;71595;52.180;4.512;2023-12-07T08:48:28;13.05;;;5.70;;
82032;SDS011;71595;52.180;4.512;2023-12-07T08:50:54;11.77;;;5.03;;
82032;SDS011;71595;52.180;4.512;2023-12-07T08:53:19;12.05;;;5.03;;
82032;SDS011;71595;52.180;4.512;2023-12-07T08:55:45;11.88;;;4.85;;
82032;SDS011;71595;52.180;4.512;2023-12-07T08:58:10;10.35;;;4.78;;
82032;SDS011;71595;52.180;4.512;2023-12-07T09:00:37;10.90;;;4.85;;
82032;SDS011;71595;52.180;4.512;2023-12-07T09:03:03;13.73;;;5.47;;
82032;SDS011;71595;52.180;4.512;2023-12-07T09:05:29;10.30;;;4.68;;
82032;SDS011;71595;52.180;4.512;2023-12-07T09:07:55;11.98;;;5.47;;
82032;SDS011;71595;52.180;4.512;2023-12-07T09:10:21;9.98;;;4.95;;
82032;SDS011;71595;52.180;4.512;2023-12-07T09:12:46;14.68;;;6.10;;
82032;SDS011;71595;52.180;4.512;2023-12-07T09:15:12;14.52;;;6.28;;
82032;SDS011;71595;52.180;4.512;2023-12-07T09:17:38;12.40;;;5.88;;
82032;SDS011;71595;52.180;4.512;2023-12-07T09:20:04;11.90;;;4.82;;
82032;SDS011;71595;52.180;4.512;2023-12-07T09:22:40;12.30;;;5.70;;
82032;SDS011;71595;52.180;4.512;2023-12-07T09:25:07;16.42;;;6.03;;
82032;SDS011;71595;52.180;4.512;2023-12-07T09:27:34;11.50;;;5.85;;
82032;SDS011;71595;52.180;4.512;2023-12-07T09:30:02;13.75;;;6.32;;
82032;SDS011;71595;52.180;4.512;2023-12-07T09:32:38;15.73;;;6.53;;
82032;SDS011;71595;52.180;4.512;2023-12-07T09:35:05;17.10;;;7.00;;
82032;SDS011;71595;52.180;4.512;2023-12-07T09:37:32;18.27;;;6.53;;
82032;SDS011;71595;52.180;4.512;2023-12-07T09:39:58;15.38;;;6.45;;
82032;SDS011;71595;52.180;4.512;2023-12-07T09:42:24;16.60;;;6.60;;
82032;SDS011;71595;52.180;4.512;2023-12-07T09:44:49;20.98;;;7.93;;
82032;SDS011;71595;52.180;4.512;2023-12-07T09:47:15;19.42;;;7.75;;
82032;SDS011;71595;52.180;4.512;2023-12-07T09:49:43;14.15;;;6.05;;
82032;SDS011;71595;52.180;4.512;2023-12-07T09:52:09;18.83;;;7.38;;
82032;SDS011;71595;52.180;4.512;2023-12-07T09:54:35;18.30;;;6.60;;
82032;SDS011;71595;52.180;4.512;2023-12-07T09:57:05;17.55;;;6.85;;
82032;SDS011;71595;52.180;4.512;2023-12-07T09:59:31;22.55;;;7.88;;
82032;SDS011;71595;52.180;4.512;2023-12-07T10:01:56;19.13;;;6.63;;
82032;SDS011;71595;52.180;4.512;2023-12-07T10:04:22;17.17;;;7.05;;
82032;SDS011;71595;52.180;4.512;2023-12-07T10:06:51;18.45;;;7.45;;
82032;SDS011;71595;52.180;4.512;2023-12-07T10:09:17;20.70;;;7.70;;
82032;SDS011;71595;52.180;4.512;2023-12-07T10:11:49;16.10;;;7.40;;
82032;SDS011;71595;52.180;4.512;2023-12-07T10:14:15;18.20;;;7.07;;
82032;SDS011;71595;52.180;4.512;2023-12-07T10:16:52;24.30;;;8.05;;
82032;SDS011;71595;52.180;4.512;2023-12-07T10:19:21;20.98;;;8.25;;
82032;SDS011;71595;52.180;4.512;2023-12-07T10:21:47;23.95;;;8.18;;
82032;SDS011;71595;52.180;4.512;2023-12-07T10:24:15;24.50;;;9.13;;
82032;SDS011;71595;52.180;4.512;2023-12-07T10:29:06;22.65;;;8.43;;
82032;SDS011;71595;52.180;4.512;2023-12-07T10:31:32;23.02;;;7.88;;
82032;SDS011;71595;52.180;4.512;2023-12-07T10:33:58;24.50;;;8.95;;
82032;SDS011;71595;52.180;4.512;2023-12-07T10:36:25;25.45;;;9.65;;
82032;SDS011;71595;52.180;4.512;2023-12-07T10:38:51;22.10;;;7.43;;
82032;SDS011;71595;52.180;4.512;2023-12-07T10:41:16;24.83;;;8.82;;
82032;SDS011;71595;52.180;4.512;2023-12-07T10:43:44;26.77;;;9.93;;
82032;SDS011;71595;52.180;4.512;2023-12-07T10:46:32;23.58;;;8.88;;
82032;SDS011;71595;52.180;4.512;2023-12-07T10:49:06;25.92;;;8.75;;
82032;SDS011;71595;52.180;4.512;2023-12-07T10:51:37;24.33;;;9.15;;
82032;SDS011;71595;52.180;4.512;2023-12-07T10:54:06;25.20;;;9.63;;
82032;SDS011;71595;52.180;4.512;2023-12-07T10:56:43;21.55;;;8.63;;
82032;SDS011;71595;52.180;4.512;2023-12-07T10:59:09;21.17;;;8.68;;
82032;SDS011;71595;52.180;4.512;2023-12-07T11:01:39;28.73;;;9.35;;
82032;SDS011;71595;52.180;4.512;2023-12-07T11:06:31;23.88;;;8.43;;
82032;SDS011;71595;52.180;4.512;2023-12-07T11:08:58;19.80;;;7.38;;
82032;SDS011;71595;52.180;4.512;2023-12-07T11:11:34;21.40;;;8.52;;
82032;SDS011;71595;52.180;4.512;2023-12-07T11:14:07;20.40;;;8.85;;
82032;SDS011;71595;52.180;4.512;2023-12-07T11:16:37;22.92;;;8.48;;
82032;SDS011;71595;52.180;4.512;2023-12-07T11:19:04;23.42;;;8.40;;
82032;SDS011;71595;52.180;4.512;2023-12-07T11:21:30;19.50;;;8.65;;
82032;SDS011;71595;52.180;4.512;2023-12-07T11:23:56;27.30;;;8.63;;
82032;SDS011;71595;52.180;4.512;2023-12-07T11:26:26;22.40;;;8.05;;
82032;SDS011;71595;52.180;4.512;2023-12-07T11:28:51;20.40;;;8.20;;
82032;SDS011;71595;52.180;4.512;2023-12-07T11:31:21;19.70;;;8.18;;
82032;SDS011;71595;52.180;4.512;2023-12-07T11:33:46;22.25;;;8.23;;
82032;SDS011;71595;52.180;4.512;2023-12-07T11:36:13;20.42;;;8.32;;
82032;SDS011;71595;52.180;4.512;2023-12-07T11:39:15;24.52;;;9.68;;
82032;SDS011;71595;52.180;4.512;2023-12-07T11:41:34;23.80;;;9.40;;
82032;SDS011;71595;52.180;4.512;2023-12-07T11:44:05;21.20;;;8.90;;
82032;SDS011;71595;52.180;4.512;2023-12-07T11:46:30;17.42;;;7.70;;
82032;SDS011;71595;52.180;4.512;2023-12-07T11:48:55;20.88;;;8.75;;
82032;SDS011;71595;52.180;4.512;2023-12-07T11:51:23;18.55;;;7.90;;
82032;SDS011;71595;52.180;4.512;2023-12-07T11:53:49;20.95;;;8.95;;
82032;SDS011;71595;52.180;4.512;2023-12-07T11:56:15;20.23;;;8.07;;
82032;SDS011;71595;52.180;4.512;2023-12-07T11:58:45;20.38;;;9.30;;
82032;SDS011;71595;52.180;4.512;2023-12-07T12:01:11;21.08;;;8.55;;
82032;SDS011;71595;52.180;4.512;2023-12-07T12:03:37;22.08;;;8.25;;
82032;SDS011;71595;52.180;4.512;2023-12-07T12:06:03;23.45;;;9.40;;
82032;SDS011;71595;52.180;4.512;2023-12-07T12:08:31;20.73;;;8.23;;
82032;SDS011;71595;52.180;4.512;2023-12-07T12:10:56;21.08;;;9.10;;
82032;SDS011;71595;52.180;4.512;2023-12-07T12:13:28;25.70;;;8.82;;
82032;SDS011;71595;52.180;4.512;2023-12-07T12:15:55;24.27;;;9.20;;
82032;SDS011;71595;52.180;4.512;2023-12-07T12:18:21;21.13;;;8.63;;
82032;SDS011;71595;52.180;4.512;2023-12-07T12:20:47;23.38;;;8.65;;
82032;SDS011;71595;52.180;4.512;2023-12-07T12:23:12;24.27;;;9.32;;
82032;SDS011;71595;52.180;4.512;2023-12-07T12:25:37;21.38;;;9.07;;
82032;SDS011;71595;52.180;4.512;2023-12-07T12:28:05;25.52;;;10.27;;
82032;SDS011;71595;52.180;4.512;2023-12-07T12:30:31;24.55;;;9.43;;
82032;SDS011;71595;52.180;4.512;2023-12-07T12:32:57;23.33;;;9.60;;
82032;SDS011;71595;52.180;4.512;2023-12-07T12:35:23;27.52;;;9.40;;
82032;SDS011;71595;52.180;4.512;2023-12-07T12:37:49;27.83;;;10.50;;
82032;SDS011;71595;52.180;4.512;2023-12-07T12:40:15;21.70;;;8.98;;
82032;SDS011;71595;52.180;4.512;2023-12-07T12:42:43;21.60;;;9.63;;
82032;SDS011;71595;52.180;4.512;2023-12-07T12:45:10;22.85;;;9.52;;
82032;SDS011;71595;52.180;4.512;2023-12-07T12:47:37;21.60;;;9.50;;
82032;SDS011;71595;52.180;4.512;2023-12-07T12:50:03;23.45;;;9.50;;
82032;SDS011;71595;52.180;4.512;2023-12-07T12:52:30;21.23;;;10.35;;
82032;SDS011;71595;52.180;4.512;2023-12-07T12:54:56;23.20;;;9.38;;
82032;SDS011;71595;52.180;4.512;2023-12-07T12:57:22;21.40;;;10.05;;
82032;SDS011;71595;52.180;4.512;2023-12-07T12:59:48;23.45;;;9.77;;
82032;SDS011;71595;52.180;4.512;2023-12-07T13:02:15;23.20;;;9.48;;
82032;SDS011;71595;52.180;4.512;2023-12-07T13:04:40;22.77;;;9.30;;
82032;SDS011;71595;52.180;4.512;2023-12-07T13:07:06;20.40;;;9.25;;
82032;SDS011;71595;52.180;4.512;2023-12-07T13:09:31;23.40;;;9.23;;
82032;SDS011;71595;52.180;4.512;2023-12-07T13:11:57;22.35;;;9.00;;
82032;SDS011;71595;52.180;4.512;2023-12-07T13:14:23;20.38;;;8.77;;
82032;SDS011;71595;52.180;4.512;2023-12-07T13:16:48;21.13;;;9.00;;
82032;SDS011;71595;52.180;4.512;2023-12-07T13:19:14;20.02;;;8.60;;
82032;SDS011;71595;52.180;4.512;2023-12-07T13:21:39;20.15;;;8.70;;
82032;SDS011;71595;52.180;4.512;2023-12-07T13:24:04;23.17;;;9.20;;
82032;SDS011;71595;52.180;4.512;2023-12-07T13:26:31;20.73;;;8.88;;
82032;SDS011;71595;52.180;4.512;2023-12-07T13:28:56;22.63;;;8.73;;
82032;SDS011;71595;52.180;4.512;2023-12-07T13:31:22;20.35;;;8.18;;
82032;SDS011;71595;52.180;4.512;2023-12-07T13:33:47;18.38;;;8.73;;
82032;SDS011;71595;52.180;4.512;2023-12-07T13:36:13;22.55;;;8.32;;
82032;SDS011;71595;52.180;4.512;2023-12-07T13:38:42;21.00;;;8.23;;
82032;SDS011;71595;52.180;4.512;2023-12-07T13:41:08;23.30;;;9.30;;
82032;SDS011;71595;52.180;4.512;2023-12-07T13:43:33;15.70;;;8.00;;
82032;SDS011;71595;52.180;4.512;2023-12-07T13:45:59;16.67;;;7.38;;
82032;SDS011;71595;52.180;4.512;2023-12-07T13:48:24;19.10;;;7.63;;
82032;SDS011;71595;52.180;4.512;2023-12-07T13:50:51;15.68;;;7.90;;
82032;SDS011;71595;52.180;4.512;2023-12-07T13:53:17;17.45;;;7.90;;
82032;SDS011;71595;52.180;4.512;2023-12-07T13:55:44;20.23;;;8.38;;
82032;SDS011;71595;52.180;4.512;2023-12-07T13:58:10;16.50;;;7.80;;
82032;SDS011;71595;52.180;4.512;2023-12-07T14:00:38;20.60;;;8.70;;
82032;SDS011;71595;52.180;4.512;2023-12-07T14:03:03;21.25;;;8.27;;
82032;SDS011;71595;52.180;4.512;2023-12-07T14:05:29;21.10;;;9.77;;
82032;SDS011;71595;52.180;4.512;2023-12-07T14:07:55;20.27;;;8.98;;
82032;SDS011;71595;52.180;4.512;2023-12-07T14:12:47;22.50;;;8.48;;
82032;SDS011;71595;52.180;4.512;2023-12-07T14:15:12;21.77;;;9.45;;
82032;SDS011;71595;52.180;4.512;2023-12-07T14:17:38;21.00;;;9.93;;
82032;SDS011;71595;52.180;4.512;2023-12-07T14:20:04;21.48;;;9.15;;
82032;SDS011;71595;52.180;4.512;2023-12-07T14:22:32;24.48;;;9.80;;
82032;SDS011;71595;52.180;4.512;2023-12-07T14:24:57;27.95;;;9.05;;
82032;SDS011;71595;52.180;4.512;2023-12-07T14:27:23;18.23;;;7.90;;
82032;SDS011;71595;52.180;4.512;2023-12-07T14:29:48;19.85;;;9.25;;
82032;SDS011;71595;52.180;4.512;2023-12-07T14:32:13;22.50;;;8.75;;
82032;SDS011;71595;52.180;4.512;2023-12-07T14:34:39;23.90;;;9.52;;
82032;SDS011;71595;52.180;4.512;2023-12-07T14:37:04;17.63;;;8.27;;
82032;SDS011;71595;52.180;4.512;2023-12-07T14:39:30;26.02;;;10.50;;
82032;SDS011;71595;52.180;4.512;2023-12-07T14:41:56;24.80;;;9.15;;
82032;SDS011;71595;52.180;4.512;2023-12-07T14:44:22;21.98;;;9.32;;
82032;SDS011;71595;52.180;4.512;2023-12-07T14:46:48;20.63;;;8.70;;
82032;SDS011;71595;52.180;4.512;2023-12-07T14:49:14;21.52;;;9.45;;